Sign in

Advertising

Info

Aviation weather - KDAB

METAR KDAB 300853Z 00000KT 10SM FEW009 BKN024 BKN050 25/24 A2994 RMK AO2 RAB0755E30 SLP137 BKN024 V SCT P0015 60052 T02500244 55007

TAF KDAB 300803Z 3008/3106 VRB06KT P6SM VCSH FEW006 SCT013 BKN035 TEMPO 3008/3009 2SM SHRA BKN013 BKN020 FM301500 08009KT P6SM VCSH SCT025 BKN050 BKN250 FM301800 10010KT P6SM VCTS SCT020CB BKN050 BKN150 FM310000 16004KT P6SM VCSH FEW020 SCT050 BKN150

Aviation weather from ADDS. Re-check weather before flight.

-